createdAt,value
2022-08-03T00:01:44.248Z,20.30
2022-08-03T00:04:13.100Z,20.02
2022-08-03T00:06:41.255Z,20.52
2022-08-03T00:09:09.832Z,20.75
2022-08-03T00:11:38.562Z,18.30
2022-08-03T00:14:07.299Z,17.85
2022-08-03T00:16:37.285Z,17.95
2022-08-03T00:19:05.447Z,18.67
2022-08-03T00:21:33.722Z,18.13
2022-08-03T00:24:01.784Z,18.13
2022-08-03T00:26:29.878Z,18.70
2022-08-03T00:28:57.884Z,18.73
2022-08-03T00:31:39.861Z,18.55
2022-08-03T00:34:15.542Z,19.02
2022-08-03T00:36:43.560Z,19.48
2022-08-03T00:39:11.764Z,19.55
2022-08-03T00:41:39.761Z,19.45
2022-08-03T00:44:07.836Z,19.25
2022-08-03T00:46:35.872Z,19.70
2022-08-03T00:49:05.053Z,19.75
2022-08-03T00:51:35.492Z,19.15
2022-08-03T00:54:03.622Z,19.20
2022-08-03T00:56:31.883Z,18.95
2022-08-03T00:59:00.635Z,19.25
2022-08-03T01:01:30.655Z,20.30
2022-08-03T01:04:00.618Z,19.40
2022-08-03T01:06:42.233Z,20.08
2022-08-03T01:09:17.797Z,19.73
2022-08-03T01:12:00.879Z,18.98
2022-08-03T01:14:37.042Z,19.27
2022-08-03T01:17:14.309Z,19.98
2022-08-03T01:19:54.906Z,21.15
2022-08-03T01:22:54.143Z,21.95
2022-08-03T01:25:36.466Z,23.85
2022-08-03T01:28:21.034Z,22.13
2022-08-03T01:30:54.519Z,21.70
2022-08-03T01:33:26.051Z,20.92
2022-08-03T01:36:00.636Z,20.95
2022-08-03T01:38:32.154Z,19.70
2022-08-03T01:41:06.111Z,19.50
2022-08-03T01:44:27.547Z,20.33
2022-08-03T01:46:26.213Z,19.25
2022-08-03T01:48:56.301Z,19.38
2022-08-03T01:51:24.494Z,20.48
2022-08-03T01:54:14.377Z,20.60
2022-08-03T01:56:43.895Z,19.95
2022-08-03T01:59:15.569Z,19.58
2022-08-03T02:02:31.937Z,19.67
2022-08-03T02:04:36.130Z,18.67
2022-08-03T02:07:04.388Z,18.33
2022-08-03T02:09:33.511Z,19.90
2022-08-03T02:12:02.680Z,19.90
2022-08-03T02:14:32.312Z,18.65
2022-08-03T02:17:02.787Z,18.67
2022-08-03T02:19:35.774Z,18.65
2022-08-03T02:22:05.045Z,19.02
2022-08-03T02:24:33.642Z,18.55
2022-08-03T02:27:03.929Z,18.08
2022-08-03T02:29:39.629Z,17.95
2022-08-03T02:32:13.628Z,18.00
2022-08-03T02:34:43.612Z,17.92
2022-08-03T02:37:12.898Z,17.45
2022-08-03T02:39:42.919Z,17.90
2022-08-03T02:42:13.068Z,18.42
2022-08-03T02:44:47.768Z,18.75
2022-08-03T02:47:21.275Z,18.63
2022-08-03T02:49:52.150Z,17.65
2022-08-03T02:52:23.372Z,18.20
2022-08-03T02:54:56.040Z,18.27
2022-08-03T02:57:25.935Z,18.13
2022-08-03T02:59:55.289Z,17.90
2022-08-03T03:02:26.119Z,18.17
2022-08-03T03:05:52.602Z,17.73
2022-08-03T03:07:48.589Z,17.92
2022-08-03T03:10:21.160Z,17.75
2022-08-03T03:12:51.280Z,17.20
2022-08-03T03:15:20.206Z,18.42
2022-08-03T03:17:51.402Z,17.73
2022-08-03T03:20:29.838Z,18.05
2022-08-03T03:23:01.099Z,18.15
2022-08-03T03:25:29.954Z,17.40
2022-08-03T03:27:58.837Z,17.55
2022-08-03T03:30:27.396Z,17.20
2022-08-03T03:32:58.169Z,17.95
2022-08-03T03:35:27.282Z,18.48
2022-08-03T03:37:55.355Z,17.98
2022-08-03T03:40:23.963Z,18.67
2022-08-03T03:42:52.418Z,17.67
2022-08-03T03:45:21.911Z,17.52
2022-08-03T03:47:50.428Z,18.52
2022-08-03T03:50:20.584Z,17.98
2022-08-03T03:52:48.529Z,18.30
2022-08-03T03:55:19.912Z,17.92
2022-08-03T03:57:47.898Z,18.17
2022-08-03T04:00:18.484Z,18.30
2022-08-03T04:02:46.513Z,17.23
2022-08-03T04:05:32.672Z,17.48
2022-08-03T04:08:30.143Z,17.52
2022-08-03T04:11:06.548Z,17.75
2022-08-03T04:13:37.910Z,16.58
2022-08-03T04:16:08.341Z,16.60
2022-08-03T04:18:39.812Z,16.65
2022-08-03T04:21:11.729Z,17.20
2022-08-03T04:23:45.779Z,17.90
2022-08-03T04:26:16.052Z,16.88
2022-08-03T04:28:47.207Z,17.00
2022-08-03T04:31:16.902Z,16.70
2022-08-03T04:33:46.417Z,16.55
2022-08-03T04:36:18.143Z,16.50
2022-08-03T04:38:56.608Z,16.60
2022-08-03T04:41:27.437Z,16.05
2022-08-03T04:43:57.176Z,15.60
2022-08-03T04:46:28.337Z,15.32
2022-08-03T04:48:57.636Z,15.25
2022-08-03T04:51:26.316Z,16.63
2022-08-03T04:53:55.935Z,16.23
2022-08-03T04:56:23.888Z,16.10
2022-08-03T04:58:52.263Z,15.85
2022-08-03T05:01:22.602Z,15.13
2022-08-03T05:03:51.578Z,15.50
2022-08-03T05:06:19.514Z,14.90
2022-08-03T05:08:50.861Z,14.82
2022-08-03T05:11:20.627Z,16.27
2022-08-03T05:13:49.180Z,14.23
2022-08-03T05:16:17.316Z,13.93
2022-08-03T05:18:46.197Z,14.15
2022-08-03T05:21:16.722Z,14.70
2022-08-03T05:23:44.882Z,14.73
2022-08-03T05:26:13.243Z,14.23
2022-08-03T05:28:51.072Z,13.50
2022-08-03T05:31:20.142Z,14.40
2022-08-03T05:33:48.998Z,14.43
2022-08-03T05:36:17.323Z,14.98
2022-08-03T05:38:45.299Z,15.98
2022-08-03T05:41:21.214Z,15.98
2022-08-03T05:43:53.875Z,17.73
2022-08-03T05:46:22.599Z,18.08
2022-08-03T05:48:50.898Z,18.60
2022-08-03T05:51:19.033Z,19.55
2022-08-03T05:53:47.346Z,18.48
2022-08-03T05:56:16.697Z,18.83
2022-08-03T05:58:47.638Z,19.88
2022-08-03T06:01:18.038Z,19.58
2022-08-03T06:03:46.608Z,18.70
2022-08-03T06:06:14.659Z,20.05
2022-08-03T06:08:43.986Z,21.35
2022-08-03T06:11:12.215Z,21.02
2022-08-03T06:13:40.667Z,20.85
2022-08-03T06:16:08.846Z,20.92
2022-08-03T06:18:38.893Z,22.55
2022-08-03T06:21:14.978Z,22.80
2022-08-03T06:23:54.193Z,22.17
2022-08-03T06:26:28.156Z,23.42
2022-08-03T06:28:56.321Z,23.90
2022-08-03T06:31:32.903Z,25.67
2022-08-03T06:34:34.394Z,24.42
2022-08-03T06:36:52.535Z,23.65
2022-08-03T06:39:23.421Z,24.17
2022-08-03T06:41:52.768Z,24.92
2022-08-03T06:44:20.941Z,25.23
2022-08-03T06:46:49.051Z,26.38
2022-08-03T06:49:19.015Z,25.90
2022-08-03T06:52:04.085Z,26.13
2022-08-03T06:54:35.683Z,24.23
2022-08-03T06:57:03.942Z,22.65
2022-08-03T07:00:09.847Z,25.50
2022-08-03T07:02:20.385Z,26.83
2022-08-03T07:04:50.246Z,28.48
2022-08-03T07:07:19.313Z,27.77
2022-08-03T07:09:56.405Z,25.77
2022-08-03T07:12:26.182Z,28.65
2022-08-03T07:14:59.585Z,28.98
2022-08-03T07:17:29.243Z,28.42
2022-08-03T07:19:58.802Z,29.98
2022-08-03T07:22:27.104Z,34.22
2022-08-03T07:24:55.229Z,30.75
2022-08-03T07:27:23.467Z,27.77
2022-08-03T07:29:51.497Z,28.95
2022-08-03T07:32:19.641Z,29.38
2022-08-03T07:34:47.794Z,27.73
2022-08-03T07:37:17.144Z,26.25
2022-08-03T07:39:45.383Z,29.33
2022-08-03T07:42:13.561Z,29.77
2022-08-03T07:44:41.568Z,31.27
2022-08-03T07:47:09.792Z,29.23
2022-08-03T07:49:50.276Z,27.85
2022-08-03T07:52:37.363Z,27.40
2022-08-03T07:55:06.402Z,27.17
2022-08-03T07:57:34.520Z,32.08
2022-08-03T08:00:03.070Z,32.00
2022-08-03T08:02:31.184Z,26.95
2022-08-03T08:05:03.545Z,27.83
2022-08-03T08:07:35.287Z,27.40
2022-08-03T08:10:03.304Z,26.23
2022-08-03T08:12:31.517Z,24.48
2022-08-03T08:14:59.598Z,24.55
2022-08-03T08:17:27.703Z,26.45
2022-08-03T08:19:55.993Z,25.17
2022-08-03T08:22:29.885Z,24.55
2022-08-03T08:25:01.217Z,25.75
2022-08-03T08:28:30.891Z,27.48
2022-08-03T08:30:20.172Z,26.40
2022-08-03T08:32:48.905Z,26.73
2022-08-03T08:35:17.504Z,24.73
2022-08-03T08:37:51.222Z,26.65
2022-08-03T08:40:23.006Z,25.88
2022-08-03T08:42:58.393Z,25.05
2022-08-03T08:45:27.552Z,26.17
2022-08-03T08:48:01.032Z,24.05
2022-08-03T08:50:31.200Z,27.02
2022-08-03T08:53:03.775Z,28.08
2022-08-03T08:55:59.006Z,27.95
2022-08-03T08:58:23.958Z,27.27
2022-08-03T09:00:52.797Z,25.15
2022-08-03T09:03:29.039Z,23.48
2022-08-03T09:06:00.537Z,23.20
2022-08-03T09:08:29.466Z,24.58
2022-08-03T09:10:58.896Z,24.02
2022-08-03T09:13:27.146Z,25.58
2022-08-03T09:16:12.014Z,24.42
2022-08-03T09:18:41.867Z,23.83
2022-08-03T09:21:32.242Z,26.15
2022-08-03T09:24:04.433Z,26.60
2022-08-03T09:26:36.750Z,23.95
2022-08-03T09:29:12.865Z,24.90
2022-08-03T09:31:44.662Z,25.52
2022-08-03T09:34:14.344Z,24.58
2022-08-03T09:36:44.671Z,25.17
2022-08-03T09:39:13.965Z,23.42
2022-08-03T09:41:44.991Z,22.23
2022-08-03T09:44:24.537Z,21.23
2022-08-03T09:46:54.560Z,22.85
2022-08-03T09:49:22.644Z,23.02
2022-08-03T09:52:37.929Z,23.35
2022-08-03T09:54:39.281Z,22.00
2022-08-03T09:57:08.694Z,21.92
2022-08-03T09:59:39.189Z,22.67
2022-08-03T10:02:23.780Z,19.83
2022-08-03T10:04:53.224Z,21.55
2022-08-03T10:07:22.453Z,22.58
2022-08-03T10:10:29.059Z,20.85
2022-08-03T10:12:49.274Z,22.88
2022-08-03T10:16:22.944Z,16.80
2022-08-03T10:18:06.066Z,16.42
2022-08-03T10:20:38.516Z,14.57
2022-08-03T10:23:07.172Z,12.13
2022-08-03T10:25:39.090Z,10.57
2022-08-03T10:28:13.581Z,9.35
2022-08-03T10:30:45.410Z,8.70
2022-08-03T10:33:51.126Z,7.38
2022-08-03T10:36:08.678Z,7.18
2022-08-03T10:38:41.540Z,7.40
2022-08-03T10:41:10.010Z,7.32
2022-08-03T10:43:45.113Z,7.47
2022-08-03T10:46:15.254Z,7.43
2022-08-03T10:48:43.791Z,7.55
2022-08-03T10:51:11.934Z,7.70
2022-08-03T10:53:44.023Z,7.07
2022-08-03T10:57:13.522Z,7.70
2022-08-03T11:00:06.027Z,6.43
2022-08-03T11:03:07.265Z,5.93
2022-08-03T11:05:37.011Z,5.80
2022-08-03T11:08:24.737Z,5.38
2022-08-03T11:10:55.284Z,4.85
2022-08-03T11:13:25.726Z,4.53
2022-08-03T11:15:59.991Z,4.70
2022-08-03T11:18:31.943Z,5.80
2022-08-03T11:21:01.418Z,5.53
2022-08-03T11:24:03.966Z,5.45
2022-08-03T11:26:33.067Z,5.57
2022-08-03T11:29:28.967Z,5.03
2022-08-03T11:31:58.596Z,5.43
2022-08-03T11:34:27.168Z,5.72
2022-08-03T11:37:22.713Z,5.85
2022-08-03T11:39:54.565Z,6.40
2022-08-03T11:42:41.757Z,6.38
2022-08-03T11:45:12.597Z,5.13
2022-08-03T11:47:50.658Z,5.20
2022-08-03T11:50:20.186Z,5.35
2022-08-03T11:52:48.788Z,4.78
2022-08-03T11:55:20.565Z,5.63
2022-08-03T11:59:01.718Z,5.22
2022-08-03T12:00:37.565Z,4.55
2022-08-03T12:03:10.018Z,3.55
2022-08-03T12:05:40.609Z,4.18
2022-08-03T12:08:11.228Z,3.28
2022-08-03T12:10:40.593Z,4.07
2022-08-03T12:14:45.162Z,3.80
2022-08-03T12:15:59.815Z,3.88
2022-08-03T12:18:29.188Z,3.47
2022-08-03T12:21:07.345Z,3.60
2022-08-03T12:23:37.800Z,3.72
2022-08-03T12:26:08.209Z,3.88
2022-08-03T12:28:38.405Z,3.10
2022-08-03T12:31:09.424Z,3.50
2022-08-03T12:34:03.025Z,3.35
2022-08-03T12:36:32.826Z,3.30
2022-08-03T12:39:02.707Z,2.97
2022-08-03T12:41:34.212Z,3.40
2022-08-03T12:44:04.019Z,3.20
2022-08-03T12:46:34.088Z,3.17
2022-08-03T12:49:06.595Z,3.35
2022-08-03T12:51:36.949Z,3.10
2022-08-03T12:54:05.857Z,3.92
2022-08-03T12:56:34.189Z,3.38
2022-08-03T12:59:20.525Z,3.40
2022-08-03T13:01:54.872Z,3.42
2022-08-03T13:04:33.683Z,3.22
2022-08-03T13:07:03.743Z,3.97
2022-08-03T13:09:42.758Z,3.47
2022-08-03T13:12:12.846Z,2.83
2022-08-03T13:14:41.289Z,3.05
2022-08-03T13:17:09.387Z,2.78
2022-08-03T13:19:39.926Z,3.53
2022-08-03T13:22:15.125Z,3.33
2022-08-03T13:24:44.661Z,3.10
2022-08-03T13:28:03.287Z,2.90
2022-08-03T13:30:02.289Z,3.10
2022-08-03T13:32:30.234Z,3.03
2022-08-03T13:34:59.603Z,2.97
2022-08-03T13:37:27.786Z,2.88
2022-08-03T13:39:59.801Z,2.97
2022-08-03T13:42:32.661Z,3.35
2022-08-03T13:45:01.573Z,3.00
2022-08-03T13:47:29.945Z,2.80
2022-08-03T13:50:00.968Z,3.25
2022-08-03T13:52:31.881Z,2.90
2022-08-03T13:55:00.280Z,2.75
2022-08-03T13:58:11.719Z,2.72
2022-08-03T14:00:27.164Z,2.63
2022-08-03T14:03:09.156Z,2.28
2022-08-03T14:05:42.408Z,2.40
2022-08-03T14:08:10.642Z,2.40
2022-08-03T14:10:41.256Z,2.58
2022-08-03T14:13:09.986Z,2.40
2022-08-03T14:15:38.746Z,2.10
2022-08-03T14:18:12.636Z,1.90
2022-08-03T14:20:50.227Z,2.17
2022-08-03T14:23:22.405Z,2.60
2022-08-03T14:25:52.254Z,2.83
2022-08-03T14:28:22.939Z,2.65
2022-08-03T14:30:52.049Z,2.38
2022-08-03T14:33:20.179Z,2.20
2022-08-03T14:35:50.326Z,1.90
2022-08-03T14:38:19.210Z,2.10
2022-08-03T14:40:47.512Z,2.25
2022-08-03T14:43:17.820Z,2.63
2022-08-03T14:45:47.727Z,2.38
2022-08-03T14:50:29.395Z,2.38
2022-08-03T14:51:06.187Z,2.30
2022-08-03T14:53:35.392Z,2.17
2022-08-03T14:56:07.799Z,1.98
2022-08-03T14:58:38.217Z,2.30
2022-08-03T15:02:06.364Z,2.20
2022-08-03T15:03:55.286Z,2.25
2022-08-03T15:06:24.585Z,1.92
2022-08-03T15:09:13.927Z,1.88
2022-08-03T15:11:40.672Z,2.13
2022-08-03T15:14:09.586Z,1.63
2022-08-03T15:16:38.112Z,1.75
2022-08-03T15:20:01.077Z,1.70
2022-08-03T15:21:55.626Z,1.73
2022-08-03T15:24:23.620Z,1.70
2022-08-03T15:26:52.499Z,2.10
2022-08-03T15:30:04.842Z,1.80
2022-08-03T15:32:09.595Z,1.80
2022-08-03T15:34:38.216Z,1.80
2022-08-03T15:37:15.236Z,2.10
2022-08-03T15:39:59.028Z,1.75
2022-08-03T15:42:29.180Z,1.95
2022-08-03T15:44:57.348Z,2.10
2022-08-03T15:47:25.398Z,2.08
2022-08-03T15:49:53.578Z,1.92
2022-08-03T15:52:22.968Z,2.05
2022-08-03T15:54:51.378Z,2.03
2022-08-03T15:57:19.597Z,1.90
2022-08-03T15:59:47.797Z,1.80
2022-08-03T16:02:16.028Z,2.25
2022-08-03T16:04:44.196Z,1.63
2022-08-03T16:07:12.756Z,2.15
2022-08-03T16:09:44.075Z,2.00
2022-08-03T16:12:15.639Z,1.85
2022-08-03T16:14:52.888Z,1.85
2022-08-03T16:17:22.098Z,2.13
2022-08-03T16:19:50.529Z,1.80
2022-08-03T16:22:22.953Z,2.05
2022-08-03T16:24:53.256Z,1.90
2022-08-03T16:27:37.537Z,2.30
2022-08-03T16:30:11.927Z,2.13
2022-08-03T16:32:39.964Z,2.30
2022-08-03T16:35:09.061Z,2.20
2022-08-03T16:37:50.760Z,2.15
2022-08-03T16:40:26.777Z,2.17
2022-08-03T16:42:55.040Z,1.95
2022-08-03T16:45:23.416Z,2.20
2022-08-03T16:48:05.609Z,2.65
2022-08-03T16:50:35.035Z,2.20
2022-08-03T16:53:08.903Z,2.30
2022-08-03T16:55:51.734Z,2.35
2022-08-03T16:58:34.532Z,1.88
2022-08-03T17:01:21.521Z,2.13
2022-08-03T17:04:02.251Z,2.60
2022-08-03T17:06:35.168Z,2.35
2022-08-03T17:09:09.219Z,2.15
2022-08-03T17:11:46.430Z,2.20
2022-08-03T17:14:17.361Z,1.80
2022-08-03T17:16:53.022Z,2.17
2022-08-03T17:19:24.075Z,2.20
2022-08-03T17:22:00.654Z,2.20
2022-08-03T17:24:34.208Z,2.63
2022-08-03T17:27:08.852Z,2.50
2022-08-03T17:29:45.259Z,2.40
2022-08-03T17:32:21.215Z,2.90
2022-08-03T17:34:51.197Z,2.10
2022-08-03T17:37:50.507Z,2.17
2022-08-03T17:40:17.512Z,2.38
2022-08-03T17:42:50.588Z,2.60
2022-08-03T17:45:19.551Z,2.60
2022-08-03T17:47:57.588Z,2.40
2022-08-03T17:50:34.569Z,2.47
2022-08-03T17:53:15.542Z,2.55
2022-08-03T17:56:04.174Z,2.55
2022-08-03T17:58:43.629Z,2.45
2022-08-03T18:01:59.995Z,2.95
2022-08-03T18:04:30.188Z,2.42
2022-08-03T18:07:11.890Z,2.30
2022-08-03T18:10:03.582Z,2.35
2022-08-03T18:12:51.719Z,2.70
2022-08-03T18:15:26.242Z,2.10
2022-08-03T18:18:02.312Z,2.40
2022-08-03T18:20:41.017Z,3.15
2022-08-03T18:23:25.212Z,2.40
2022-08-03T18:26:01.285Z,2.83
2022-08-03T18:28:29.946Z,2.90
2022-08-03T18:31:04.267Z,2.70
2022-08-03T18:34:17.381Z,2.20
2022-08-03T18:36:31.776Z,2.63
2022-08-03T18:39:02.635Z,2.80
2022-08-03T18:41:33.655Z,2.92
2022-08-03T18:44:08.004Z,3.22
2022-08-03T18:46:51.149Z,3.03
2022-08-03T18:49:39.448Z,2.53
2022-08-03T18:52:16.774Z,2.35
2022-08-03T18:55:02.572Z,3.10
2022-08-03T18:57:46.368Z,2.72
2022-08-03T19:00:17.089Z,2.22
2022-08-03T19:02:58.690Z,2.90
2022-08-03T19:05:57.774Z,2.95
2022-08-03T19:08:26.127Z,2.80
2022-08-03T19:11:00.883Z,2.60
2022-08-03T19:13:36.531Z,2.40
2022-08-03T19:16:10.548Z,2.67
2022-08-03T19:18:43.271Z,2.20
2022-08-03T19:21:12.673Z,2.83
2022-08-03T19:23:48.047Z,2.13
2022-08-03T19:26:29.990Z,2.53
2022-08-03T19:29:00.109Z,2.20
2022-08-03T19:31:30.908Z,2.50
2022-08-03T19:34:04.754Z,2.85
2022-08-03T19:36:40.420Z,2.10
2022-08-03T19:39:10.016Z,2.55
2022-08-03T19:41:42.833Z,2.42
2022-08-03T19:44:20.475Z,2.53
2022-08-03T19:46:55.052Z,2.60
2022-08-03T19:49:57.709Z,2.47
2022-08-03T19:52:24.570Z,2.85
2022-08-03T19:55:04.030Z,2.47
2022-08-03T19:57:34.124Z,2.63
2022-08-03T20:00:04.090Z,2.35
2022-08-03T20:02:33.766Z,2.80
2022-08-03T20:05:03.738Z,3.22
2022-08-03T20:07:33.208Z,2.60
2022-08-03T20:10:02.359Z,2.85
2022-08-03T20:12:38.580Z,2.67
2022-08-03T20:15:13.286Z,2.60
2022-08-03T20:17:56.567Z,2.60
2022-08-03T20:20:31.287Z,2.67
2022-08-03T20:23:06.648Z,2.35
2022-08-03T20:25:57.346Z,2.47
2022-08-03T20:28:30.509Z,2.80
2022-08-03T20:30:59.971Z,2.70
2022-08-03T20:33:46.547Z,2.65
2022-08-03T20:36:18.679Z,2.58
2022-08-03T20:38:48.242Z,2.65
2022-08-03T20:41:16.594Z,2.90
2022-08-03T20:43:49.201Z,2.83
2022-08-03T20:46:31.913Z,2.58
2022-08-03T20:49:05.626Z,2.65
2022-08-03T20:51:50.278Z,2.80
2022-08-03T20:54:30.840Z,2.17
2022-08-03T20:57:00.365Z,2.70
2022-08-03T20:59:36.950Z,2.67
2022-08-03T21:02:19.912Z,3.22
2022-08-03T21:04:57.445Z,3.00
2022-08-03T21:08:04.378Z,3.10
2022-08-03T21:10:18.333Z,3.00
2022-08-03T21:12:53.078Z,3.30
2022-08-03T21:16:03.281Z,3.65
2022-08-03T21:18:17.579Z,3.10
2022-08-03T21:20:47.295Z,3.30
2022-08-03T21:23:40.140Z,3.03
2022-08-03T21:26:11.580Z,2.90
2022-08-03T21:28:40.254Z,4.10
2022-08-03T21:31:08.976Z,3.03
2022-08-03T21:33:37.203Z,4.07
2022-08-03T21:36:06.736Z,2.90
2022-08-03T21:38:36.945Z,3.10
2022-08-03T21:41:07.998Z,3.25
2022-08-03T21:43:35.969Z,4.40
2022-08-03T21:46:06.484Z,7.13
2022-08-03T21:48:39.085Z,10.43
2022-08-03T21:51:08.730Z,6.80
2022-08-03T21:54:02.747Z,4.57
2022-08-03T21:56:29.569Z,3.25
2022-08-03T21:59:03.162Z,3.50
2022-08-03T22:01:34.502Z,6.38
2022-08-03T22:04:07.050Z,5.50
2022-08-03T22:06:36.355Z,4.00
2022-08-03T22:09:07.234Z,6.10
2022-08-03T22:11:35.746Z,10.15
2022-08-03T22:14:04.208Z,11.68
2022-08-03T22:16:32.428Z,10.02
2022-08-03T22:19:00.438Z,12.60
2022-08-03T22:21:36.367Z,11.82
2022-08-03T22:24:06.877Z,11.35
2022-08-03T22:26:40.705Z,17.40
2022-08-03T22:29:09.085Z,14.57
2022-08-03T22:31:58.615Z,13.27
2022-08-03T22:34:27.867Z,16.20
2022-08-03T22:37:01.955Z,13.90
2022-08-03T22:39:31.719Z,15.60
2022-08-03T22:42:00.266Z,14.95
2022-08-03T22:44:28.628Z,11.27
2022-08-03T22:46:57.079Z,9.77
2022-08-03T22:49:25.461Z,8.60
2022-08-03T22:51:54.538Z,9.50
2022-08-03T22:54:23.573Z,12.50
2022-08-03T22:56:53.558Z,10.82
2022-08-03T22:59:41.075Z,11.20
2022-08-03T23:02:20.531Z,9.93
2022-08-03T23:04:52.190Z,9.52
2022-08-03T23:07:27.988Z,10.10
2022-08-03T23:09:58.416Z,9.55
2022-08-03T23:12:30.452Z,11.18
2022-08-03T23:15:02.736Z,9.68
2022-08-03T23:17:32.449Z,8.55
2022-08-03T23:20:06.327Z,14.27
2022-08-03T23:22:35.031Z,20.20
2022-08-03T23:25:04.980Z,17.70
2022-08-03T23:27:34.841Z,20.85
2022-08-03T23:30:03.879Z,22.58
2022-08-03T23:32:32.394Z,20.65
2022-08-03T23:35:20.731Z,19.92
2022-08-03T23:38:07.208Z,22.38
2022-08-03T23:40:38.166Z,17.23
2022-08-03T23:43:08.788Z,16.50
2022-08-03T23:45:46.334Z,16.92
2022-08-03T23:48:14.302Z,17.52
2022-08-03T23:50:46.201Z,17.45
2022-08-03T23:53:22.639Z,15.73
2022-08-03T23:56:10.474Z,15.85
2022-08-03T23:59:01.320Z,18.00
